sensor_id;sensor_type;location;lat;lon;timestamp;P1;durP1;ratioP1;P2;durP2;ratioP2
52898;SDS011;38763;53.096;6.062;2023-01-19T00:01:38;8.55;;;2.40;;
52898;SDS011;38763;53.096;6.062;2023-01-19T00:04:03;5.57;;;2.55;;
52898;SDS011;38763;53.096;6.062;2023-01-19T00:06:29;5.40;;;2.40;;
52898;SDS011;38763;53.096;6.062;2023-01-19T00:08:55;7.63;;;2.70;;
52898;SDS011;38763;53.096;6.062;2023-01-19T00:11:21;8.88;;;2.58;;
52898;SDS011;38763;53.096;6.062;2023-01-19T00:13:47;7.25;;;2.33;;
52898;SDS011;38763;53.096;6.062;2023-01-19T00:16:16;7.55;;;2.83;;
52898;SDS011;38763;53.096;6.062;2023-01-19T00:18:43;10.57;;;2.50;;
52898;SDS011;38763;53.096;6.062;2023-01-19T00:21:10;11.93;;;2.88;;
52898;SDS011;38763;53.096;6.062;2023-01-19T00:23:36;5.90;;;2.70;;
52898;SDS011;38763;53.096;6.062;2023-01-19T00:26:01;8.95;;;2.50;;
52898;SDS011;38763;53.096;6.062;2023-01-19T00:28:27;11.00;;;2.72;;
52898;SDS011;38763;53.096;6.062;2023-01-19T00:30:53;9.27;;;2.60;;
52898;SDS011;38763;53.096;6.062;2023-01-19T00:33:18;10.55;;;2.50;;
52898;SDS011;38763;53.096;6.062;2023-01-19T00:35:44;9.05;;;2.63;;
52898;SDS011;38763;53.096;6.062;2023-01-19T00:38:15;9.60;;;2.30;;
52898;SDS011;38763;53.096;6.062;2023-01-19T00:40:41;8.23;;;2.50;;
52898;SDS011;38763;53.096;6.062;2023-01-19T00:43:06;7.88;;;2.50;;
52898;SDS011;38763;53.096;6.062;2023-01-19T00:45:32;13.10;;;2.47;;
52898;SDS011;38763;53.096;6.062;2023-01-19T00:47:58;6.93;;;2.42;;
52898;SDS011;38763;53.096;6.062;2023-01-19T00:50:24;5.38;;;2.47;;
52898;SDS011;38763;53.096;6.062;2023-01-19T00:52:52;8.55;;;2.80;;
52898;SDS011;38763;53.096;6.062;2023-01-19T00:55:19;12.20;;;2.90;;
52898;SDS011;38763;53.096;6.062;2023-01-19T00:57:45;8.23;;;2.30;;
52898;SDS011;38763;53.096;6.062;2023-01-19T01:00:12;7.80;;;2.80;;
52898;SDS011;38763;53.096;6.062;2023-01-19T01:02:40;11.43;;;2.88;;
52898;SDS011;38763;53.096;6.062;2023-01-19T01:05:07;11.38;;;3.00;;
52898;SDS011;38763;53.096;6.062;2023-01-19T01:07:34;12.38;;;3.20;;
52898;SDS011;38763;53.096;6.062;2023-01-19T01:10:10;8.52;;;2.90;;
52898;SDS011;38763;53.096;6.062;2023-01-19T01:12:41;10.63;;;3.10;;
52898;SDS011;38763;53.096;6.062;2023-01-19T01:15:07;12.35;;;2.72;;
52898;SDS011;38763;53.096;6.062;2023-01-19T01:17:34;7.45;;;2.78;;
52898;SDS011;38763;53.096;6.062;2023-01-19T01:20:01;10.88;;;2.88;;
52898;SDS011;38763;53.096;6.062;2023-01-19T01:22:28;9.43;;;2.85;;
52898;SDS011;38763;53.096;6.062;2023-01-19T01:24:54;9.60;;;2.80;;
52898;SDS011;38763;53.096;6.062;2023-01-19T01:27:20;11.15;;;2.80;;
52898;SDS011;38763;53.096;6.062;2023-01-19T01:29:45;10.38;;;2.60;;
52898;SDS011;38763;53.096;6.062;2023-01-19T01:32:14;10.07;;;2.70;;
52898;SDS011;38763;53.096;6.062;2023-01-19T01:34:40;9.73;;;2.72;;
52898;SDS011;38763;53.096;6.062;2023-01-19T01:37:06;8.52;;;2.80;;
52898;SDS011;38763;53.096;6.062;2023-01-19T01:39:33;12.65;;;2.70;;
52898;SDS011;38763;53.096;6.062;2023-01-19T01:41:59;15.75;;;2.90;;
52898;SDS011;38763;53.096;6.062;2023-01-19T01:44:42;11.27;;;2.70;;
52898;SDS011;38763;53.096;6.062;2023-01-19T01:49:49;8.88;;;2.60;;
52898;SDS011;38763;53.096;6.062;2023-01-19T01:52:17;7.20;;;2.70;;
52898;SDS011;38763;53.096;6.062;2023-01-19T01:54:44;6.28;;;2.35;;
52898;SDS011;38763;53.096;6.062;2023-01-19T01:57:10;9.93;;;2.92;;
52898;SDS011;38763;53.096;6.062;2023-01-19T01:59:40;8.00;;;2.88;;
52898;SDS011;38763;53.096;6.062;2023-01-19T02:02:10;11.52;;;2.90;;
52898;SDS011;38763;53.096;6.062;2023-01-19T02:05:01;12.88;;;2.88;;
52898;SDS011;38763;53.096;6.062;2023-01-19T02:10:49;8.00;;;2.70;;
52898;SDS011;38763;53.096;6.062;2023-01-19T02:13:34;7.68;;;2.55;;
52898;SDS011;38763;53.096;6.062;2023-01-19T02:16:05;10.52;;;2.80;;
52898;SDS011;38763;53.096;6.062;2023-01-19T02:18:31;10.57;;;2.78;;
52898;SDS011;38763;53.096;6.062;2023-01-19T02:26:11;5.78;;;2.50;;
52898;SDS011;38763;53.096;6.062;2023-01-19T02:28:41;7.97;;;3.17;;
52898;SDS011;38763;53.096;6.062;2023-01-19T02:31:10;6.93;;;2.53;;
52898;SDS011;38763;53.096;6.062;2023-01-19T02:33:36;13.77;;;2.80;;
52898;SDS011;38763;53.096;6.062;2023-01-19T02:36:01;9.18;;;2.85;;
52898;SDS011;38763;53.096;6.062;2023-01-19T02:38:28;8.05;;;2.75;;
52898;SDS011;38763;53.096;6.062;2023-01-19T02:40:55;12.25;;;2.90;;
52898;SDS011;38763;53.096;6.062;2023-01-19T02:43:23;4.57;;;2.72;;
52898;SDS011;38763;53.096;6.062;2023-01-19T02:45:50;6.13;;;2.70;;
52898;SDS011;38763;53.096;6.062;2023-01-19T02:48:17;6.25;;;2.53;;
52898;SDS011;38763;53.096;6.062;2023-01-19T02:50:45;7.40;;;3.08;;
52898;SDS011;38763;53.096;6.062;2023-01-19T02:55:42;8.45;;;2.50;;
52898;SDS011;38763;53.096;6.062;2023-01-19T02:58:19;8.82;;;2.50;;
52898;SDS011;38763;53.096;6.062;2023-01-19T03:03:47;5.93;;;2.60;;
52898;SDS011;38763;53.096;6.062;2023-01-19T03:08:58;9.02;;;2.60;;
52898;SDS011;38763;53.096;6.062;2023-01-19T03:14:02;7.95;;;2.20;;
52898;SDS011;38763;53.096;6.062;2023-01-19T03:21:53;5.72;;;2.30;;
52898;SDS011;38763;53.096;6.062;2023-01-19T03:24:21;5.40;;;2.00;;
52898;SDS011;38763;53.096;6.062;2023-01-19T03:26:51;10.43;;;2.72;;
52898;SDS011;38763;53.096;6.062;2023-01-19T03:29:23;6.97;;;2.30;;
52898;SDS011;38763;53.096;6.062;2023-01-19T03:31:52;7.78;;;2.50;;
52898;SDS011;38763;53.096;6.062;2023-01-19T03:34:20;9.55;;;2.65;;
52898;SDS011;38763;53.096;6.062;2023-01-19T03:36:49;5.95;;;2.30;;
52898;SDS011;38763;53.096;6.062;2023-01-19T03:39:21;5.65;;;2.20;;
52898;SDS011;38763;53.096;6.062;2023-01-19T03:41:49;8.05;;;2.38;;
52898;SDS011;38763;53.096;6.062;2023-01-19T03:44:19;8.82;;;2.35;;
52898;SDS011;38763;53.096;6.062;2023-01-19T03:46:44;8.15;;;2.53;;
52898;SDS011;38763;53.096;6.062;2023-01-19T03:49:12;8.27;;;3.10;;
52898;SDS011;38763;53.096;6.062;2023-01-19T03:51:37;11.18;;;2.90;;
52898;SDS011;38763;53.096;6.062;2023-01-19T03:54:04;8.93;;;2.72;;
52898;SDS011;38763;53.096;6.062;2023-01-19T03:56:31;12.82;;;2.80;;
52898;SDS011;38763;53.096;6.062;2023-01-19T03:58:57;14.32;;;3.10;;
52898;SDS011;38763;53.096;6.062;2023-01-19T04:01:23;13.07;;;3.00;;
52898;SDS011;38763;53.096;6.062;2023-01-19T04:03:49;14.18;;;2.90;;
52898;SDS011;38763;53.096;6.062;2023-01-19T04:06:15;8.35;;;2.88;;
52898;SDS011;38763;53.096;6.062;2023-01-19T04:08:41;10.02;;;2.85;;
52898;SDS011;38763;53.096;6.062;2023-01-19T04:11:08;17.35;;;3.42;;
52898;SDS011;38763;53.096;6.062;2023-01-19T04:13:34;12.45;;;3.45;;
52898;SDS011;38763;53.096;6.062;2023-01-19T04:16:00;16.25;;;3.28;;
52898;SDS011;38763;53.096;6.062;2023-01-19T04:18:27;11.25;;;3.72;;
52898;SDS011;38763;53.096;6.062;2023-01-19T04:20:54;9.13;;;3.20;;
52898;SDS011;38763;53.096;6.062;2023-01-19T04:23:19;12.23;;;3.45;;
52898;SDS011;38763;53.096;6.062;2023-01-19T04:25:45;12.55;;;3.22;;
52898;SDS011;38763;53.096;6.062;2023-01-19T04:28:11;10.05;;;3.42;;
52898;SDS011;38763;53.096;6.062;2023-01-19T04:30:36;15.80;;;3.65;;
52898;SDS011;38763;53.096;6.062;2023-01-19T04:33:02;13.65;;;3.22;;
52898;SDS011;38763;53.096;6.062;2023-01-19T04:35:28;10.38;;;3.00;;
52898;SDS011;38763;53.096;6.062;2023-01-19T04:37:53;10.23;;;2.88;;
52898;SDS011;38763;53.096;6.062;2023-01-19T04:40:19;12.23;;;3.05;;
52898;SDS011;38763;53.096;6.062;2023-01-19T04:42:45;7.97;;;2.70;;
52898;SDS011;38763;53.096;6.062;2023-01-19T04:45:11;7.63;;;2.55;;
52898;SDS011;38763;53.096;6.062;2023-01-19T04:47:38;7.45;;;2.42;;
52898;SDS011;38763;53.096;6.062;2023-01-19T04:50:04;8.30;;;2.70;;
52898;SDS011;38763;53.096;6.062;2023-01-19T04:52:31;5.25;;;2.50;;
52898;SDS011;38763;53.096;6.062;2023-01-19T04:55:04;6.97;;;2.50;;
52898;SDS011;38763;53.096;6.062;2023-01-19T04:57:30;6.75;;;2.40;;
52898;SDS011;38763;53.096;6.062;2023-01-19T04:59:56;6.43;;;2.65;;
52898;SDS011;38763;53.096;6.062;2023-01-19T05:02:23;6.03;;;2.30;;
52898;SDS011;38763;53.096;6.062;2023-01-19T05:04:49;6.88;;;2.58;;
52898;SDS011;38763;53.096;6.062;2023-01-19T05:07:14;4.55;;;2.70;;
52898;SDS011;38763;53.096;6.062;2023-01-19T05:09:40;8.02;;;2.90;;
52898;SDS011;38763;53.096;6.062;2023-01-19T05:12:06;7.97;;;2.78;;
52898;SDS011;38763;53.096;6.062;2023-01-19T05:14:31;8.43;;;3.08;;
52898;SDS011;38763;53.096;6.062;2023-01-19T05:16:57;7.38;;;3.00;;
52898;SDS011;38763;53.096;6.062;2023-01-19T05:19:23;6.63;;;3.08;;
52898;SDS011;38763;53.096;6.062;2023-01-19T05:21:49;7.85;;;3.33;;
52898;SDS011;38763;53.096;6.062;2023-01-19T05:24:14;8.15;;;2.95;;
52898;SDS011;38763;53.096;6.062;2023-01-19T05:26:40;8.05;;;3.00;;
52898;SDS011;38763;53.096;6.062;2023-01-19T05:29:06;10.65;;;3.05;;
52898;SDS011;38763;53.096;6.062;2023-01-19T05:31:32;11.38;;;3.70;;
52898;SDS011;38763;53.096;6.062;2023-01-19T05:33:58;7.45;;;2.92;;
52898;SDS011;38763;53.096;6.062;2023-01-19T05:36:23;15.73;;;3.60;;
52898;SDS011;38763;53.096;6.062;2023-01-19T05:38:49;10.85;;;3.50;;
52898;SDS011;38763;53.096;6.062;2023-01-19T05:41:15;7.63;;;3.85;;
52898;SDS011;38763;53.096;6.062;2023-01-19T05:43:41;11.25;;;3.88;;
52898;SDS011;38763;53.096;6.062;2023-01-19T05:46:07;13.82;;;3.78;;
52898;SDS011;38763;53.096;6.062;2023-01-19T05:48:33;7.70;;;3.28;;
52898;SDS011;38763;53.096;6.062;2023-01-19T05:50:58;8.57;;;3.28;;
52898;SDS011;38763;53.096;6.062;2023-01-19T05:53:25;14.90;;;3.63;;
52898;SDS011;38763;53.096;6.062;2023-01-19T05:55:51;8.48;;;3.20;;
52898;SDS011;38763;53.096;6.062;2023-01-19T05:58:17;9.05;;;3.10;;
52898;SDS011;38763;53.096;6.062;2023-01-19T06:00:43;11.15;;;3.20;;
52898;SDS011;38763;53.096;6.062;2023-01-19T06:03:08;9.43;;;3.20;;
52898;SDS011;38763;53.096;6.062;2023-01-19T06:05:34;15.07;;;3.50;;
52898;SDS011;38763;53.096;6.062;2023-01-19T06:08:02;17.27;;;3.80;;
52898;SDS011;38763;53.096;6.062;2023-01-19T06:10:28;17.25;;;3.50;;
52898;SDS011;38763;53.096;6.062;2023-01-19T06:12:53;17.58;;;3.70;;
52898;SDS011;38763;53.096;6.062;2023-01-19T06:15:19;18.00;;;3.75;;
52898;SDS011;38763;53.096;6.062;2023-01-19T06:17:44;19.77;;;3.95;;
52898;SDS011;38763;53.096;6.062;2023-01-19T06:20:10;17.85;;;3.42;;
52898;SDS011;38763;53.096;6.062;2023-01-19T06:22:38;16.58;;;3.60;;
52898;SDS011;38763;53.096;6.062;2023-01-19T06:25:03;11.18;;;3.40;;
52898;SDS011;38763;53.096;6.062;2023-01-19T06:27:29;12.13;;;3.95;;
52898;SDS011;38763;53.096;6.062;2023-01-19T06:29:55;12.98;;;4.00;;
52898;SDS011;38763;53.096;6.062;2023-01-19T06:32:20;12.77;;;4.03;;
52898;SDS011;38763;53.096;6.062;2023-01-19T06:34:46;16.65;;;3.70;;
52898;SDS011;38763;53.096;6.062;2023-01-19T06:37:11;19.40;;;4.15;;
52898;SDS011;38763;53.096;6.062;2023-01-19T06:39:38;16.60;;;4.15;;
52898;SDS011;38763;53.096;6.062;2023-01-19T06:42:05;14.15;;;4.40;;
52898;SDS011;38763;53.096;6.062;2023-01-19T06:44:31;12.18;;;4.07;;
52898;SDS011;38763;53.096;6.062;2023-01-19T06:46:57;12.55;;;4.20;;
52898;SDS011;38763;53.096;6.062;2023-01-19T06:49:23;9.07;;;4.43;;
52898;SDS011;38763;53.096;6.062;2023-01-19T06:51:48;15.50;;;5.28;;
52898;SDS011;38763;53.096;6.062;2023-01-19T06:54:14;18.90;;;4.95;;
52898;SDS011;38763;53.096;6.062;2023-01-19T06:56:40;10.93;;;4.70;;
52898;SDS011;38763;53.096;6.062;2023-01-19T06:59:06;15.00;;;4.88;;
52898;SDS011;38763;53.096;6.062;2023-01-19T07:01:32;13.43;;;4.80;;
52898;SDS011;38763;53.096;6.062;2023-01-19T07:03:58;17.02;;;4.78;;
52898;SDS011;38763;53.096;6.062;2023-01-19T07:06:23;19.90;;;5.70;;
52898;SDS011;38763;53.096;6.062;2023-01-19T07:08:49;14.15;;;5.28;;
52898;SDS011;38763;53.096;6.062;2023-01-19T07:11:14;15.65;;;5.00;;
52898;SDS011;38763;53.096;6.062;2023-01-19T07:13:40;13.27;;;4.85;;
52898;SDS011;38763;53.096;6.062;2023-01-19T07:16:10;12.18;;;4.72;;
52898;SDS011;38763;53.096;6.062;2023-01-19T07:18:37;24.17;;;5.25;;
52898;SDS011;38763;53.096;6.062;2023-01-19T07:21:04;21.92;;;5.80;;
52898;SDS011;38763;53.096;6.062;2023-01-19T07:23:30;17.50;;;5.65;;
52898;SDS011;38763;53.096;6.062;2023-01-19T07:25:56;15.55;;;5.22;;
52898;SDS011;38763;53.096;6.062;2023-01-19T07:28:22;25.15;;;6.65;;
52898;SDS011;38763;53.096;6.062;2023-01-19T07:30:52;15.95;;;6.00;;
52898;SDS011;38763;53.096;6.062;2023-01-19T07:33:18;17.33;;;5.78;;
52898;SDS011;38763;53.096;6.062;2023-01-19T07:35:49;19.23;;;5.97;;
52898;SDS011;38763;53.096;6.062;2023-01-19T07:38:16;17.58;;;6.00;;
52898;SDS011;38763;53.096;6.062;2023-01-19T07:40:43;16.15;;;6.13;;
52898;SDS011;38763;53.096;6.062;2023-01-19T07:43:11;20.63;;;6.05;;
52898;SDS011;38763;53.096;6.062;2023-01-19T07:45:37;14.73;;;5.80;;
52898;SDS011;38763;53.096;6.062;2023-01-19T07:48:03;19.63;;;6.53;;
52898;SDS011;38763;53.096;6.062;2023-01-19T07:50:29;19.15;;;6.10;;
52898;SDS011;38763;53.096;6.062;2023-01-19T07:52:55;22.05;;;6.57;;
52898;SDS011;38763;53.096;6.062;2023-01-19T07:55:21;15.43;;;6.10;;
52898;SDS011;38763;53.096;6.062;2023-01-19T07:57:48;23.10;;;7.20;;
52898;SDS011;38763;53.096;6.062;2023-01-19T08:00:15;11.60;;;6.97;;
52898;SDS011;38763;53.096;6.062;2023-01-19T08:02:44;19.27;;;6.38;;
52898;SDS011;38763;53.096;6.062;2023-01-19T08:05:11;30.92;;;7.63;;
52898;SDS011;38763;53.096;6.062;2023-01-19T08:07:37;22.17;;;6.53;;
52898;SDS011;38763;53.096;6.062;2023-01-19T08:10:02;22.75;;;7.25;;
52898;SDS011;38763;53.096;6.062;2023-01-19T08:12:28;20.02;;;6.18;;
52898;SDS011;38763;53.096;6.062;2023-01-19T08:14:54;21.83;;;6.38;;
52898;SDS011;38763;53.096;6.062;2023-01-19T08:17:20;20.95;;;6.75;;
52898;SDS011;38763;53.096;6.062;2023-01-19T08:19:45;26.00;;;7.00;;
52898;SDS011;38763;53.096;6.062;2023-01-19T08:22:11;25.20;;;7.20;;
52898;SDS011;38763;53.096;6.062;2023-01-19T08:24:36;20.77;;;6.50;;
52898;SDS011;38763;53.096;6.062;2023-01-19T08:27:02;26.92;;;7.25;;
52898;SDS011;38763;53.096;6.062;2023-01-19T08:29:28;21.55;;;7.32;;
52898;SDS011;38763;53.096;6.062;2023-01-19T08:31:57;17.38;;;7.40;;
52898;SDS011;38763;53.096;6.062;2023-01-19T08:34:25;22.60;;;7.97;;
52898;SDS011;38763;53.096;6.062;2023-01-19T08:36:51;21.35;;;7.20;;
52898;SDS011;38763;53.096;6.062;2023-01-19T08:39:17;16.98;;;7.07;;
52898;SDS011;38763;53.096;6.062;2023-01-19T08:41:43;23.08;;;7.10;;
52898;SDS011;38763;53.096;6.062;2023-01-19T08:44:08;21.02;;;7.55;;
52898;SDS011;38763;53.096;6.062;2023-01-19T08:46:34;17.67;;;7.20;;
52898;SDS011;38763;53.096;6.062;2023-01-19T08:49:00;23.42;;;7.45;;
52898;SDS011;38763;53.096;6.062;2023-01-19T08:51:25;20.42;;;6.78;;
52898;SDS011;38763;53.096;6.062;2023-01-19T08:53:51;17.98;;;7.45;;
52898;SDS011;38763;53.096;6.062;2023-01-19T08:56:16;19.45;;;6.90;;
52898;SDS011;38763;53.096;6.062;2023-01-19T08:58:43;17.63;;;6.85;;
52898;SDS011;38763;53.096;6.062;2023-01-19T09:01:10;23.98;;;6.85;;
52898;SDS011;38763;53.096;6.062;2023-01-19T09:03:40;18.55;;;6.85;;
52898;SDS011;38763;53.096;6.062;2023-01-19T09:06:07;19.02;;;6.90;;
52898;SDS011;38763;53.096;6.062;2023-01-19T09:08:33;22.33;;;7.50;;
52898;SDS011;38763;53.096;6.062;2023-01-19T09:10:59;17.00;;;6.75;;
52898;SDS011;38763;53.096;6.062;2023-01-19T09:13:25;17.83;;;7.03;;
52898;SDS011;38763;53.096;6.062;2023-01-19T09:15:51;25.20;;;7.60;;
52898;SDS011;38763;53.096;6.062;2023-01-19T09:18:18;21.15;;;7.07;;
52898;SDS011;38763;53.096;6.062;2023-01-19T09:20:46;18.02;;;7.80;;
52898;SDS011;38763;53.096;6.062;2023-01-19T09:23:14;17.50;;;7.00;;
52898;SDS011;38763;53.096;6.062;2023-01-19T09:25:42;14.70;;;7.05;;
52898;SDS011;38763;53.096;6.062;2023-01-19T09:28:11;17.05;;;8.20;;
52898;SDS011;38763;53.096;6.062;2023-01-19T09:30:39;16.65;;;7.50;;
52898;SDS011;38763;53.096;6.062;2023-01-19T09:33:06;13.75;;;6.68;;
52898;SDS011;38763;53.096;6.062;2023-01-19T09:35:35;13.40;;;7.00;;
52898;SDS011;38763;53.096;6.062;2023-01-19T09:38:01;15.45;;;6.88;;
52898;SDS011;38763;53.096;6.062;2023-01-19T09:40:27;17.70;;;6.60;;
52898;SDS011;38763;53.096;6.062;2023-01-19T09:43:01;18.65;;;6.95;;
52898;SDS011;38763;53.096;6.062;2023-01-19T09:50:47;16.67;;;7.13;;
52898;SDS011;38763;53.096;6.062;2023-01-19T09:53:15;16.90;;;7.18;;
52898;SDS011;38763;53.096;6.062;2023-01-19T09:55:51;17.35;;;8.18;;
52898;SDS011;38763;53.096;6.062;2023-01-19T09:58:17;20.15;;;8.27;;
52898;SDS011;38763;53.096;6.062;2023-01-19T10:00:46;16.15;;;7.95;;
52898;SDS011;38763;53.096;6.062;2023-01-19T10:03:17;10.68;;;7.63;;
52898;SDS011;38763;53.096;6.062;2023-01-19T10:05:46;16.02;;;8.05;;
52898;SDS011;38763;53.096;6.062;2023-01-19T10:10:57;16.88;;;7.53;;
52898;SDS011;38763;53.096;6.062;2023-01-19T10:19:41;15.52;;;8.88;;
52898;SDS011;38763;53.096;6.062;2023-01-19T10:22:16;13.25;;;8.38;;
52898;SDS011;38763;53.096;6.062;2023-01-19T10:24:45;16.77;;;8.48;;
52898;SDS011;38763;53.096;6.062;2023-01-19T10:27:17;17.05;;;8.45;;
52898;SDS011;38763;53.096;6.062;2023-01-19T10:29:46;16.35;;;8.43;;
52898;SDS011;38763;53.096;6.062;2023-01-19T10:32:16;15.80;;;8.70;;
52898;SDS011;38763;53.096;6.062;2023-01-19T10:34:43;12.40;;;8.32;;
52898;SDS011;38763;53.096;6.062;2023-01-19T10:37:52;16.30;;;8.63;;
52898;SDS011;38763;53.096;6.062;2023-01-19T10:42:36;15.07;;;7.50;;
52898;SDS011;38763;53.096;6.062;2023-01-19T10:45:20;14.77;;;8.13;;
52898;SDS011;38763;53.096;6.062;2023-01-19T10:47:48;13.52;;;7.05;;
52898;SDS011;38763;53.096;6.062;2023-01-19T10:52:51;11.55;;;7.53;;
52898;SDS011;38763;53.096;6.062;2023-01-19T10:55:37;11.25;;;6.40;;
52898;SDS011;38763;53.096;6.062;2023-01-19T10:58:04;14.30;;;7.57;;
52898;SDS011;38763;53.096;6.062;2023-01-19T11:00:49;15.32;;;7.50;;
52898;SDS011;38763;53.096;6.062;2023-01-19T11:03:20;11.90;;;6.80;;
52898;SDS011;38763;53.096;6.062;2023-01-19T11:05:52;16.38;;;7.95;;
52898;SDS011;38763;53.096;6.062;2023-01-19T11:08:22;10.48;;;6.68;;
52898;SDS011;38763;53.096;6.062;2023-01-19T11:10:58;19.50;;;7.80;;
52898;SDS011;38763;53.096;6.062;2023-01-19T11:13:28;16.55;;;6.60;;
52898;SDS011;38763;53.096;6.062;2023-01-19T11:15:56;12.93;;;6.57;;
52898;SDS011;38763;53.096;6.062;2023-01-19T11:18:37;11.82;;;5.80;;
52898;SDS011;38763;53.096;6.062;2023-01-19T11:23:40;12.65;;;5.40;;
52898;SDS011;38763;53.096;6.062;2023-01-19T11:29:10;11.10;;;4.97;;
52898;SDS011;38763;53.096;6.062;2023-01-19T11:31:40;12.73;;;5.55;;
52898;SDS011;38763;53.096;6.062;2023-01-19T11:36:56;9.73;;;4.68;;
52898;SDS011;38763;53.096;6.062;2023-01-19T11:41:49;12.98;;;4.30;;
52898;SDS011;38763;53.096;6.062;2023-01-19T11:44:23;7.95;;;3.83;;
52898;SDS011;38763;53.096;6.062;2023-01-19T11:49:24;9.50;;;3.22;;
52898;SDS011;38763;53.096;6.062;2023-01-19T11:54:58;11.55;;;4.05;;
52898;SDS011;38763;53.096;6.062;2023-01-19T11:57:48;8.70;;;3.92;;
52898;SDS011;38763;53.096;6.062;2023-01-19T12:05:56;9.63;;;3.05;;
52898;SDS011;38763;53.096;6.062;2023-01-19T12:08:37;8.07;;;2.67;;
52898;SDS011;38763;53.096;6.062;2023-01-19T12:11:07;6.53;;;2.67;;
52898;SDS011;38763;53.096;6.062;2023-01-19T12:13:37;8.93;;;2.40;;
52898;SDS011;38763;53.096;6.062;2023-01-19T12:16:08;7.88;;;2.47;;
52898;SDS011;38763;53.096;6.062;2023-01-19T12:18:44;9.52;;;2.25;;
52898;SDS011;38763;53.096;6.062;2023-01-19T12:21:21;9.18;;;2.72;;
52898;SDS011;38763;53.096;6.062;2023-01-19T12:23:52;7.60;;;1.70;;
52898;SDS011;38763;53.096;6.062;2023-01-19T12:28:48;10.88;;;2.20;;
52898;SDS011;38763;53.096;6.062;2023-01-19T12:31:16;10.77;;;2.08;;
52898;SDS011;38763;53.096;6.062;2023-01-19T12:33:44;6.10;;;1.90;;
52898;SDS011;38763;53.096;6.062;2023-01-19T12:46:37;6.78;;;1.90;;
52898;SDS011;38763;53.096;6.062;2023-01-19T12:57:30;7.57;;;2.20;;
52898;SDS011;38763;53.096;6.062;2023-01-19T13:02:59;7.15;;;2.35;;
52898;SDS011;38763;53.096;6.062;2023-01-19T13:19:01;6.65;;;2.67;;
52898;SDS011;38763;53.096;6.062;2023-01-19T13:21:42;5.93;;;2.47;;
52898;SDS011;38763;53.096;6.062;2023-01-19T13:24:11;7.70;;;3.00;;
52898;SDS011;38763;53.096;6.062;2023-01-19T13:29:14;8.00;;;2.85;;
52898;SDS011;38763;53.096;6.062;2023-01-19T13:32:28;10.13;;;2.90;;
52898;SDS011;38763;53.096;6.062;2023-01-19T13:34:57;7.68;;;2.65;;
52898;SDS011;38763;53.096;6.062;2023-01-19T13:37:26;44.15;;;23.35;;
52898;SDS011;38763;53.096;6.062;2023-01-19T13:39:58;17.33;;;7.75;;
52898;SDS011;38763;53.096;6.062;2023-01-19T13:42:36;12.57;;;6.20;;
52898;SDS011;38763;53.096;6.062;2023-01-19T13:45:26;14.80;;;6.60;;
52898;SDS011;38763;53.096;6.062;2023-01-19T13:47:53;10.32;;;5.40;;
52898;SDS011;38763;53.096;6.062;2023-01-19T13:50:21;9.75;;;2.28;;
52898;SDS011;38763;53.096;6.062;2023-01-19T13:52:49;19.85;;;9.45;;
52898;SDS011;38763;53.096;6.062;2023-01-19T13:55:18;16.83;;;7.75;;
52898;SDS011;38763;53.096;6.062;2023-01-19T13:57:45;9.30;;;4.47;;
52898;SDS011;38763;53.096;6.062;2023-01-19T14:00:16;6.10;;;2.50;;
52898;SDS011;38763;53.096;6.062;2023-01-19T14:05:37;5.22;;;1.50;;
52898;SDS011;38763;53.096;6.062;2023-01-19T14:08:11;6.97;;;2.08;;
52898;SDS011;38763;53.096;6.062;2023-01-19T14:13:29;6.93;;;2.28;;
52898;SDS011;38763;53.096;6.062;2023-01-19T14:16:00;7.97;;;2.28;;
52898;SDS011;38763;53.096;6.062;2023-01-19T14:18:30;10.93;;;2.22;;
52898;SDS011;38763;53.096;6.062;2023-01-19T14:23:47;9.30;;;2.30;;
52898;SDS011;38763;53.096;6.062;2023-01-19T14:29:17;7.45;;;2.40;;
52898;SDS011;38763;53.096;6.062;2023-01-19T14:32:02;8.77;;;3.28;;
52898;SDS011;38763;53.096;6.062;2023-01-19T14:37:18;11.90;;;3.63;;
52898;SDS011;38763;53.096;6.062;2023-01-19T14:39:47;7.38;;;2.58;;
52898;SDS011;38763;53.096;6.062;2023-01-19T14:45:02;6.55;;;2.70;;
52898;SDS011;38763;53.096;6.062;2023-01-19T14:47:36;6.47;;;2.63;;
52898;SDS011;38763;53.096;6.062;2023-01-19T14:50:23;66.93;;;23.08;;
52898;SDS011;38763;53.096;6.062;2023-01-19T14:53:18;80.80;;;23.55;;
52898;SDS011;38763;53.096;6.062;2023-01-19T14:55:52;114.65;;;35.40;;
52898;SDS011;38763;53.096;6.062;2023-01-19T14:58:23;45.67;;;16.58;;
52898;SDS011;38763;53.096;6.062;2023-01-19T15:00:50;25.80;;;10.15;;
52898;SDS011;38763;53.096;6.062;2023-01-19T15:03:20;10.50;;;4.30;;
52898;SDS011;38763;53.096;6.062;2023-01-19T15:05:50;12.02;;;5.25;;
52898;SDS011;38763;53.096;6.062;2023-01-19T15:08:23;9.80;;;3.65;;
52898;SDS011;38763;53.096;6.062;2023-01-19T15:10:49;8.90;;;3.50;;
52898;SDS011;38763;53.096;6.062;2023-01-19T15:13:19;7.00;;;3.13;;
52898;SDS011;38763;53.096;6.062;2023-01-19T15:15:47;9.70;;;3.13;;
52898;SDS011;38763;53.096;6.062;2023-01-19T15:18:14;6.57;;;3.20;;
52898;SDS011;38763;53.096;6.062;2023-01-19T15:20:43;6.32;;;2.60;;
52898;SDS011;38763;53.096;6.062;2023-01-19T15:23:09;9.20;;;3.03;;
52898;SDS011;38763;53.096;6.062;2023-01-19T15:25:35;5.35;;;2.90;;
52898;SDS011;38763;53.096;6.062;2023-01-19T15:28:12;9.50;;;2.92;;
52898;SDS011;38763;53.096;6.062;2023-01-19T15:30:40;6.68;;;3.00;;
52898;SDS011;38763;53.096;6.062;2023-01-19T15:33:09;11.07;;;3.80;;
52898;SDS011;38763;53.096;6.062;2023-01-19T15:35:41;7.03;;;2.95;;
52898;SDS011;38763;53.096;6.062;2023-01-19T15:38:06;7.78;;;2.90;;
52898;SDS011;38763;53.096;6.062;2023-01-19T15:40:32;8.10;;;3.10;;
52898;SDS011;38763;53.096;6.062;2023-01-19T15:42:57;12.00;;;2.92;;
52898;SDS011;38763;53.096;6.062;2023-01-19T15:48:12;8.75;;;3.58;;
52898;SDS011;38763;53.096;6.062;2023-01-19T15:50:39;11.25;;;3.58;;
52898;SDS011;38763;53.096;6.062;2023-01-19T15:53:06;13.60;;;3.92;;
52898;SDS011;38763;53.096;6.062;2023-01-19T15:55:35;12.18;;;4.00;;
52898;SDS011;38763;53.096;6.062;2023-01-19T15:58:01;10.93;;;3.97;;
52898;SDS011;38763;53.096;6.062;2023-01-19T16:00:30;12.60;;;4.13;;
52898;SDS011;38763;53.096;6.062;2023-01-19T16:03:00;9.85;;;4.50;;
52898;SDS011;38763;53.096;6.062;2023-01-19T16:05:26;10.10;;;4.20;;
52898;SDS011;38763;53.096;6.062;2023-01-19T16:07:52;10.43;;;4.75;;
52898;SDS011;38763;53.096;6.062;2023-01-19T16:10:18;16.30;;;5.60;;
52898;SDS011;38763;53.096;6.062;2023-01-19T16:12:44;10.90;;;5.07;;
52898;SDS011;38763;53.096;6.062;2023-01-19T16:15:11;10.88;;;5.30;;
52898;SDS011;38763;53.096;6.062;2023-01-19T16:17:38;9.13;;;3.88;;
52898;SDS011;38763;53.096;6.062;2023-01-19T16:20:04;11.20;;;5.00;;
52898;SDS011;38763;53.096;6.062;2023-01-19T16:22:31;13.93;;;5.05;;
52898;SDS011;38763;53.096;6.062;2023-01-19T16:24:56;8.52;;;4.60;;
52898;SDS011;38763;53.096;6.062;2023-01-19T16:27:22;10.73;;;4.65;;
52898;SDS011;38763;53.096;6.062;2023-01-19T16:29:49;12.32;;;4.72;;
52898;SDS011;38763;53.096;6.062;2023-01-19T16:32:14;10.07;;;4.45;;
52898;SDS011;38763;53.096;6.062;2023-01-19T16:34:40;10.07;;;4.32;;
52898;SDS011;38763;53.096;6.062;2023-01-19T16:37:06;13.60;;;4.22;;
52898;SDS011;38763;53.096;6.062;2023-01-19T16:39:31;12.68;;;4.97;;
52898;SDS011;38763;53.096;6.062;2023-01-19T16:41:57;10.50;;;4.05;;
52898;SDS011;38763;53.096;6.062;2023-01-19T16:44:23;7.97;;;3.50;;
52898;SDS011;38763;53.096;6.062;2023-01-19T16:46:48;13.00;;;5.03;;
52898;SDS011;38763;53.096;6.062;2023-01-19T16:49:15;7.05;;;3.97;;
52898;SDS011;38763;53.096;6.062;2023-01-19T16:51:46;11.20;;;4.65;;
52898;SDS011;38763;53.096;6.062;2023-01-19T16:54:13;6.65;;;4.40;;